sensor_id;sensor_type;location;lat;lon;timestamp;P1;durP1;ratioP1;P2;durP2;ratioP2
4839;SDS011;2434;48.486;7.964;2023-03-31T00:00:34;5.57;;;2.20;;
4839;SDS011;2434;48.486;7.964;2023-03-31T00:03:02;9.10;;;2.70;;
4839;SDS011;2434;48.486;7.964;2023-03-31T00:05:36;6.03;;;3.37;;
4839;SDS011;2434;48.486;7.964;2023-03-31T00:08:04;6.60;;;2.37;;
4839;SDS011;2434;48.486;7.964;2023-03-31T00:10:34;6.50;;;2.40;;
4839;SDS011;2434;48.486;7.964;2023-03-31T00:13:08;8.30;;;2.33;;
4839;SDS011;2434;48.486;7.964;2023-03-31T00:15:36;7.43;;;2.57;;
4839;SDS011;2434;48.486;7.964;2023-03-31T00:18:05;5.43;;;2.70;;
4839;SDS011;2434;48.486;7.964;2023-03-31T00:20:33;7.50;;;2.80;;
4839;SDS011;2434;48.486;7.964;2023-03-31T00:23:03;8.70;;;2.83;;
4839;SDS011;2434;48.486;7.964;2023-03-31T00:25:32;7.57;;;2.27;;
4839;SDS011;2434;48.486;7.964;2023-03-31T00:28:01;4.80;;;2.47;;
4839;SDS011;2434;48.486;7.964;2023-03-31T00:30:29;7.80;;;2.47;;
4839;SDS011;2434;48.486;7.964;2023-03-31T00:32:58;7.07;;;2.30;;
4839;SDS011;2434;48.486;7.964;2023-03-31T00:35:27;7.00;;;2.43;;
4839;SDS011;2434;48.486;7.964;2023-03-31T00:37:55;7.13;;;2.30;;
4839;SDS011;2434;48.486;7.964;2023-03-31T00:40:24;5.20;;;2.37;;
4839;SDS011;2434;48.486;7.964;2023-03-31T00:42:52;7.60;;;2.63;;
4839;SDS011;2434;48.486;7.964;2023-03-31T00:45:26;6.70;;;2.73;;
4839;SDS011;2434;48.486;7.964;2023-03-31T00:47:57;8.53;;;3.10;;
4839;SDS011;2434;48.486;7.964;2023-03-31T00:50:36;8.73;;;2.70;;
4839;SDS011;2434;48.486;7.964;2023-03-31T00:53:11;9.00;;;3.30;;
4839;SDS011;2434;48.486;7.964;2023-03-31T00:55:43;6.87;;;3.43;;
4839;SDS011;2434;48.486;7.964;2023-03-31T00:58:15;5.63;;;3.00;;
4839;SDS011;2434;48.486;7.964;2023-03-31T01:00:48;13.43;;;3.33;;
4839;SDS011;2434;48.486;7.964;2023-03-31T01:03:18;9.27;;;3.43;;
4839;SDS011;2434;48.486;7.964;2023-03-31T01:05:48;14.37;;;3.30;;
4839;SDS011;2434;48.486;7.964;2023-03-31T01:08:19;7.23;;;2.57;;
4839;SDS011;2434;48.486;7.964;2023-03-31T01:10:52;9.17;;;3.50;;
4839;SDS011;2434;48.486;7.964;2023-03-31T01:13:23;6.20;;;3.07;;
4839;SDS011;2434;48.486;7.964;2023-03-31T01:15:54;8.50;;;3.50;;
4839;SDS011;2434;48.486;7.964;2023-03-31T01:18:25;8.10;;;2.73;;
4839;SDS011;2434;48.486;7.964;2023-03-31T01:21:03;7.93;;;2.80;;
4839;SDS011;2434;48.486;7.964;2023-03-31T01:23:55;8.63;;;3.53;;
4839;SDS011;2434;48.486;7.964;2023-03-31T01:26:48;12.97;;;4.07;;
4839;SDS011;2434;48.486;7.964;2023-03-31T01:29:32;6.30;;;2.90;;
4839;SDS011;2434;48.486;7.964;2023-03-31T01:32:25;9.30;;;3.20;;
4839;SDS011;2434;48.486;7.964;2023-03-31T01:35:18;10.93;;;3.40;;
4839;SDS011;2434;48.486;7.964;2023-03-31T01:38:23;6.20;;;2.90;;
4839;SDS011;2434;48.486;7.964;2023-03-31T01:41:16;6.63;;;3.13;;
4839;SDS011;2434;48.486;7.964;2023-03-31T01:43:55;8.10;;;2.80;;
4839;SDS011;2434;48.486;7.964;2023-03-31T01:46:34;8.67;;;3.40;;
4839;SDS011;2434;48.486;7.964;2023-03-31T01:49:07;7.63;;;2.80;;
4839;SDS011;2434;48.486;7.964;2023-03-31T01:51:46;5.50;;;2.87;;
4839;SDS011;2434;48.486;7.964;2023-03-31T01:54:20;6.73;;;3.07;;
4839;SDS011;2434;48.486;7.964;2023-03-31T01:56:57;7.43;;;2.83;;
4839;SDS011;2434;48.486;7.964;2023-03-31T01:59:28;9.50;;;3.20;;
4839;SDS011;2434;48.486;7.964;2023-03-31T02:02:01;7.63;;;3.10;;
4839;SDS011;2434;48.486;7.964;2023-03-31T02:04:35;9.57;;;3.20;;
4839;SDS011;2434;48.486;7.964;2023-03-31T02:07:08;8.50;;;3.27;;
4839;SDS011;2434;48.486;7.964;2023-03-31T02:09:43;11.00;;;4.20;;
4839;SDS011;2434;48.486;7.964;2023-03-31T02:12:17;10.67;;;3.27;;
4839;SDS011;2434;48.486;7.964;2023-03-31T02:14:48;7.13;;;3.50;;
4839;SDS011;2434;48.486;7.964;2023-03-31T02:17:21;5.90;;;3.23;;
4839;SDS011;2434;48.486;7.964;2023-03-31T02:19:56;7.00;;;3.00;;
4839;SDS011;2434;48.486;7.964;2023-03-31T02:22:28;8.27;;;3.43;;
4839;SDS011;2434;48.486;7.964;2023-03-31T02:24:59;7.23;;;3.30;;
4839;SDS011;2434;48.486;7.964;2023-03-31T02:27:32;9.70;;;3.70;;
4839;SDS011;2434;48.486;7.964;2023-03-31T02:30:03;6.67;;;3.20;;
4839;SDS011;2434;48.486;7.964;2023-03-31T02:32:34;10.47;;;3.50;;
4839;SDS011;2434;48.486;7.964;2023-03-31T02:35:04;9.27;;;3.60;;
4839;SDS011;2434;48.486;7.964;2023-03-31T02:37:34;5.80;;;3.23;;
4839;SDS011;2434;48.486;7.964;2023-03-31T02:40:04;7.93;;;3.80;;
4839;SDS011;2434;48.486;7.964;2023-03-31T02:42:37;7.93;;;3.60;;
4839;SDS011;2434;48.486;7.964;2023-03-31T02:48:03;9.47;;;3.90;;
4839;SDS011;2434;48.486;7.964;2023-03-31T02:50:33;6.70;;;3.30;;
4839;SDS011;2434;48.486;7.964;2023-03-31T02:53:15;12.03;;;3.60;;
4839;SDS011;2434;48.486;7.964;2023-03-31T02:55:58;8.97;;;3.60;;
4839;SDS011;2434;48.486;7.964;2023-03-31T02:58:45;10.27;;;3.53;;
4839;SDS011;2434;48.486;7.964;2023-03-31T03:01:28;8.13;;;3.70;;
4839;SDS011;2434;48.486;7.964;2023-03-31T03:04:14;8.87;;;4.80;;
4839;SDS011;2434;48.486;7.964;2023-03-31T03:07:01;6.07;;;3.77;;
4839;SDS011;2434;48.486;7.964;2023-03-31T03:09:37;10.37;;;4.47;;
4839;SDS011;2434;48.486;7.964;2023-03-31T03:12:13;15.20;;;4.10;;
4839;SDS011;2434;48.486;7.964;2023-03-31T03:14:48;5.90;;;3.80;;
4839;SDS011;2434;48.486;7.964;2023-03-31T03:17:22;8.43;;;3.50;;
4839;SDS011;2434;48.486;7.964;2023-03-31T03:19:54;9.40;;;4.03;;
4839;SDS011;2434;48.486;7.964;2023-03-31T03:22:25;9.83;;;4.17;;
4839;SDS011;2434;48.486;7.964;2023-03-31T03:24:53;6.97;;;3.67;;
4839;SDS011;2434;48.486;7.964;2023-03-31T03:27:22;9.03;;;4.03;;
4839;SDS011;2434;48.486;7.964;2023-03-31T03:29:51;8.87;;;4.47;;
4839;SDS011;2434;48.486;7.964;2023-03-31T03:32:19;7.23;;;3.87;;
4839;SDS011;2434;48.486;7.964;2023-03-31T03:34:47;10.77;;;4.40;;
4839;SDS011;2434;48.486;7.964;2023-03-31T03:37:15;13.00;;;4.60;;
4839;SDS011;2434;48.486;7.964;2023-03-31T03:39:44;13.27;;;3.80;;
4839;SDS011;2434;48.486;7.964;2023-03-31T03:42:12;12.20;;;4.60;;
4839;SDS011;2434;48.486;7.964;2023-03-31T03:44:41;8.90;;;3.63;;
4839;SDS011;2434;48.486;7.964;2023-03-31T03:47:10;16.40;;;4.73;;
4839;SDS011;2434;48.486;7.964;2023-03-31T03:49:38;7.17;;;4.13;;
4839;SDS011;2434;48.486;7.964;2023-03-31T03:52:06;18.30;;;5.00;;
4839;SDS011;2434;48.486;7.964;2023-03-31T03:54:35;12.23;;;4.90;;
4839;SDS011;2434;48.486;7.964;2023-03-31T03:57:03;9.87;;;4.20;;
4839;SDS011;2434;48.486;7.964;2023-03-31T03:59:32;8.63;;;4.00;;
4839;SDS011;2434;48.486;7.964;2023-03-31T04:02:00;6.10;;;4.30;;
4839;SDS011;2434;48.486;7.964;2023-03-31T04:04:30;11.07;;;4.00;;
4839;SDS011;2434;48.486;7.964;2023-03-31T04:06:58;8.70;;;4.10;;
4839;SDS011;2434;48.486;7.964;2023-03-31T04:09:26;14.90;;;4.93;;
4839;SDS011;2434;48.486;7.964;2023-03-31T04:11:55;11.03;;;3.80;;
4839;SDS011;2434;48.486;7.964;2023-03-31T04:14:23;12.00;;;4.33;;
4839;SDS011;2434;48.486;7.964;2023-03-31T04:16:51;8.50;;;3.80;;
4839;SDS011;2434;48.486;7.964;2023-03-31T04:19:21;9.03;;;5.00;;
4839;SDS011;2434;48.486;7.964;2023-03-31T04:21:52;13.50;;;4.70;;
4839;SDS011;2434;48.486;7.964;2023-03-31T04:24:28;11.60;;;4.83;;
4839;SDS011;2434;48.486;7.964;2023-03-31T04:26:59;13.73;;;5.40;;
4839;SDS011;2434;48.486;7.964;2023-03-31T04:29:28;14.53;;;5.73;;
4839;SDS011;2434;48.486;7.964;2023-03-31T04:31:59;11.30;;;5.40;;
4839;SDS011;2434;48.486;7.964;2023-03-31T04:34:27;8.30;;;4.73;;
4839;SDS011;2434;48.486;7.964;2023-03-31T04:37:02;11.83;;;4.40;;
4839;SDS011;2434;48.486;7.964;2023-03-31T04:39:31;9.97;;;4.13;;
4839;SDS011;2434;48.486;7.964;2023-03-31T04:41:59;12.50;;;5.10;;
4839;SDS011;2434;48.486;7.964;2023-03-31T04:44:28;10.87;;;5.20;;
4839;SDS011;2434;48.486;7.964;2023-03-31T04:46:56;19.37;;;5.67;;
4839;SDS011;2434;48.486;7.964;2023-03-31T04:49:28;11.77;;;5.30;;
4839;SDS011;2434;48.486;7.964;2023-03-31T04:51:58;10.80;;;4.33;;
4839;SDS011;2434;48.486;7.964;2023-03-31T04:54:28;11.07;;;5.10;;
4839;SDS011;2434;48.486;7.964;2023-03-31T04:56:56;18.40;;;5.40;;
4839;SDS011;2434;48.486;7.964;2023-03-31T04:59:24;12.13;;;4.80;;
4839;SDS011;2434;48.486;7.964;2023-03-31T05:01:52;10.47;;;5.03;;
4839;SDS011;2434;48.486;7.964;2023-03-31T05:04:21;15.53;;;6.03;;
4839;SDS011;2434;48.486;7.964;2023-03-31T05:06:49;11.67;;;6.10;;
4839;SDS011;2434;48.486;7.964;2023-03-31T05:09:17;12.63;;;5.03;;
4839;SDS011;2434;48.486;7.964;2023-03-31T05:11:48;11.73;;;5.17;;
4839;SDS011;2434;48.486;7.964;2023-03-31T05:14:17;12.73;;;5.30;;
4839;SDS011;2434;48.486;7.964;2023-03-31T05:16:46;10.67;;;5.20;;
4839;SDS011;2434;48.486;7.964;2023-03-31T05:19:14;11.27;;;4.73;;
4839;SDS011;2434;48.486;7.964;2023-03-31T05:21:43;15.80;;;4.97;;
4839;SDS011;2434;48.486;7.964;2023-03-31T05:24:12;11.60;;;5.20;;
4839;SDS011;2434;48.486;7.964;2023-03-31T05:26:40;11.50;;;4.97;;
4839;SDS011;2434;48.486;7.964;2023-03-31T05:29:14;14.17;;;5.50;;
4839;SDS011;2434;48.486;7.964;2023-03-31T05:31:43;9.90;;;4.97;;
4839;SDS011;2434;48.486;7.964;2023-03-31T05:34:11;13.93;;;4.50;;
4839;SDS011;2434;48.486;7.964;2023-03-31T05:36:39;7.70;;;4.83;;
4839;SDS011;2434;48.486;7.964;2023-03-31T05:39:08;6.77;;;4.57;;
4839;SDS011;2434;48.486;7.964;2023-03-31T05:41:36;13.00;;;5.10;;
4839;SDS011;2434;48.486;7.964;2023-03-31T05:44:05;9.13;;;4.50;;
4839;SDS011;2434;48.486;7.964;2023-03-31T05:46:34;12.60;;;5.27;;
4839;SDS011;2434;48.486;7.964;2023-03-31T05:49:02;10.10;;;5.13;;
4839;SDS011;2434;48.486;7.964;2023-03-31T05:51:31;8.43;;;4.93;;
4839;SDS011;2434;48.486;7.964;2023-03-31T05:54:00;9.37;;;4.90;;
4839;SDS011;2434;48.486;7.964;2023-03-31T05:56:28;11.30;;;4.60;;
4839;SDS011;2434;48.486;7.964;2023-03-31T05:58:58;11.53;;;5.17;;
4839;SDS011;2434;48.486;7.964;2023-03-31T06:01:26;10.53;;;5.70;;
4839;SDS011;2434;48.486;7.964;2023-03-31T06:03:56;11.97;;;5.40;;
4839;SDS011;2434;48.486;7.964;2023-03-31T06:06:25;9.27;;;5.60;;
4839;SDS011;2434;48.486;7.964;2023-03-31T06:08:53;13.00;;;5.47;;
4839;SDS011;2434;48.486;7.964;2023-03-31T06:11:21;13.33;;;5.87;;
4839;SDS011;2434;48.486;7.964;2023-03-31T06:13:50;18.80;;;5.77;;
4839;SDS011;2434;48.486;7.964;2023-03-31T06:16:18;9.20;;;4.77;;
4839;SDS011;2434;48.486;7.964;2023-03-31T06:18:46;11.97;;;4.93;;
4839;SDS011;2434;48.486;7.964;2023-03-31T06:21:18;9.50;;;5.30;;
4839;SDS011;2434;48.486;7.964;2023-03-31T06:23:47;13.37;;;5.77;;
4839;SDS011;2434;48.486;7.964;2023-03-31T06:26:16;11.73;;;4.60;;
4839;SDS011;2434;48.486;7.964;2023-03-31T06:28:45;11.50;;;5.33;;
4839;SDS011;2434;48.486;7.964;2023-03-31T06:31:15;7.43;;;3.60;;
4839;SDS011;2434;48.486;7.964;2023-03-31T06:33:44;10.73;;;3.70;;
4839;SDS011;2434;48.486;7.964;2023-03-31T06:36:13;6.30;;;2.97;;
4839;SDS011;2434;48.486;7.964;2023-03-31T06:38:44;6.93;;;2.90;;
4839;SDS011;2434;48.486;7.964;2023-03-31T06:41:13;11.50;;;3.33;;
4839;SDS011;2434;48.486;7.964;2023-03-31T06:43:42;8.30;;;2.93;;
4839;SDS011;2434;48.486;7.964;2023-03-31T06:46:11;8.37;;;3.80;;
4839;SDS011;2434;48.486;7.964;2023-03-31T06:48:40;8.23;;;2.90;;
4839;SDS011;2434;48.486;7.964;2023-03-31T06:51:08;11.00;;;3.90;;
4839;SDS011;2434;48.486;7.964;2023-03-31T06:53:37;9.40;;;3.07;;
4839;SDS011;2434;48.486;7.964;2023-03-31T06:56:06;6.63;;;3.17;;
4839;SDS011;2434;48.486;7.964;2023-03-31T06:58:35;4.60;;;2.20;;
4839;SDS011;2434;48.486;7.964;2023-03-31T07:01:04;6.70;;;2.97;;
4839;SDS011;2434;48.486;7.964;2023-03-31T07:03:33;9.00;;;3.03;;
4839;SDS011;2434;48.486;7.964;2023-03-31T07:06:01;5.13;;;2.50;;
4839;SDS011;2434;48.486;7.964;2023-03-31T07:08:30;3.33;;;2.00;;
4839;SDS011;2434;48.486;7.964;2023-03-31T07:10:58;4.80;;;2.10;;
4839;SDS011;2434;48.486;7.964;2023-03-31T07:13:28;4.47;;;2.70;;
4839;SDS011;2434;48.486;7.964;2023-03-31T07:15:57;7.20;;;2.30;;
4839;SDS011;2434;48.486;7.964;2023-03-31T07:18:25;8.83;;;3.07;;
4839;SDS011;2434;48.486;7.964;2023-03-31T07:21:00;4.30;;;2.17;;
4839;SDS011;2434;48.486;7.964;2023-03-31T07:23:31;6.40;;;2.50;;
4839;SDS011;2434;48.486;7.964;2023-03-31T07:25:59;3.40;;;1.80;;
4839;SDS011;2434;48.486;7.964;2023-03-31T07:28:29;4.40;;;2.10;;
4839;SDS011;2434;48.486;7.964;2023-03-31T07:30:58;3.10;;;2.00;;
4839;SDS011;2434;48.486;7.964;2023-03-31T07:33:26;3.13;;;2.10;;
4839;SDS011;2434;48.486;7.964;2023-03-31T07:35:55;4.07;;;1.90;;
4839;SDS011;2434;48.486;7.964;2023-03-31T07:38:36;5.17;;;1.93;;
4839;SDS011;2434;48.486;7.964;2023-03-31T07:41:05;7.63;;;2.07;;
4839;SDS011;2434;48.486;7.964;2023-03-31T07:49:19;4.90;;;1.77;;
4839;SDS011;2434;48.486;7.964;2023-03-31T07:51:47;2.73;;;1.97;;
4839;SDS011;2434;48.486;7.964;2023-03-31T07:54:15;5.23;;;2.00;;
4839;SDS011;2434;48.486;7.964;2023-03-31T07:56:43;4.13;;;1.83;;
4839;SDS011;2434;48.486;7.964;2023-03-31T07:59:12;5.40;;;1.90;;
4839;SDS011;2434;48.486;7.964;2023-03-31T08:01:40;3.23;;;1.57;;
4839;SDS011;2434;48.486;7.964;2023-03-31T08:04:08;5.17;;;1.43;;
4839;SDS011;2434;48.486;7.964;2023-03-31T08:06:39;4.27;;;2.10;;
4839;SDS011;2434;48.486;7.964;2023-03-31T08:09:07;2.93;;;1.83;;
4839;SDS011;2434;48.486;7.964;2023-03-31T08:11:35;2.90;;;1.60;;
4839;SDS011;2434;48.486;7.964;2023-03-31T08:14:03;3.80;;;1.67;;
4839;SDS011;2434;48.486;7.964;2023-03-31T08:16:31;4.90;;;2.33;;
4839;SDS011;2434;48.486;7.964;2023-03-31T08:19:00;4.87;;;1.60;;
4839;SDS011;2434;48.486;7.964;2023-03-31T08:21:28;8.47;;;1.70;;
4839;SDS011;2434;48.486;7.964;2023-03-31T08:23:58;5.17;;;1.80;;
4839;SDS011;2434;48.486;7.964;2023-03-31T08:26:26;3.50;;;1.50;;
4839;SDS011;2434;48.486;7.964;2023-03-31T08:28:56;2.40;;;1.20;;
4839;SDS011;2434;48.486;7.964;2023-03-31T08:31:24;1.47;;;1.20;;
4839;SDS011;2434;48.486;7.964;2023-03-31T08:33:54;3.83;;;1.50;;
4839;SDS011;2434;48.486;7.964;2023-03-31T08:36:24;5.00;;;1.50;;
4839;SDS011;2434;48.486;7.964;2023-03-31T08:38:53;3.23;;;1.47;;
4839;SDS011;2434;48.486;7.964;2023-03-31T08:41:29;10.17;;;2.63;;
4839;SDS011;2434;48.486;7.964;2023-03-31T08:44:22;3.37;;;1.50;;
4839;SDS011;2434;48.486;7.964;2023-03-31T08:46:56;4.63;;;1.90;;
4839;SDS011;2434;48.486;7.964;2023-03-31T08:49:26;2.77;;;1.27;;
4839;SDS011;2434;48.486;7.964;2023-03-31T08:51:58;5.90;;;1.80;;
4839;SDS011;2434;48.486;7.964;2023-03-31T08:54:32;5.50;;;1.97;;
4839;SDS011;2434;48.486;7.964;2023-03-31T08:57:05;6.20;;;2.00;;
4839;SDS011;2434;48.486;7.964;2023-03-31T08:59:42;9.53;;;1.80;;
4839;SDS011;2434;48.486;7.964;2023-03-31T09:02:13;7.10;;;2.00;;
4839;SDS011;2434;48.486;7.964;2023-03-31T09:04:55;4.20;;;1.83;;
4839;SDS011;2434;48.486;7.964;2023-03-31T09:07:39;5.33;;;1.87;;
4839;SDS011;2434;48.486;7.964;2023-03-31T09:10:30;8.10;;;2.00;;
4839;SDS011;2434;48.486;7.964;2023-03-31T09:13:17;7.60;;;1.80;;
4839;SDS011;2434;48.486;7.964;2023-03-31T09:16:06;6.20;;;1.50;;
4839;SDS011;2434;48.486;7.964;2023-03-31T09:18:42;7.90;;;2.17;;
4839;SDS011;2434;48.486;7.964;2023-03-31T09:21:14;12.00;;;1.70;;
4839;SDS011;2434;48.486;7.964;2023-03-31T09:23:47;7.70;;;1.97;;
4839;SDS011;2434;48.486;7.964;2023-03-31T09:26:24;11.73;;;2.37;;
4839;SDS011;2434;48.486;7.964;2023-03-31T09:28:59;12.40;;;2.73;;
4839;SDS011;2434;48.486;7.964;2023-03-31T09:31:32;7.87;;;2.27;;
4839;SDS011;2434;48.486;7.964;2023-03-31T09:34:01;9.20;;;1.90;;
4839;SDS011;2434;48.486;7.964;2023-03-31T09:36:40;9.10;;;1.90;;
4839;SDS011;2434;48.486;7.964;2023-03-31T09:39:10;8.83;;;1.80;;
4839;SDS011;2434;48.486;7.964;2023-03-31T09:41:41;5.93;;;1.53;;
4839;SDS011;2434;48.486;7.964;2023-03-31T09:44:23;9.33;;;2.40;;
4839;SDS011;2434;48.486;7.964;2023-03-31T09:46:54;9.50;;;1.87;;
4839;SDS011;2434;48.486;7.964;2023-03-31T09:49:24;11.87;;;1.93;;
4839;SDS011;2434;48.486;7.964;2023-03-31T09:52:02;6.17;;;1.97;;
4839;SDS011;2434;48.486;7.964;2023-03-31T09:54:36;6.00;;;1.77;;
4839;SDS011;2434;48.486;7.964;2023-03-31T09:57:12;6.93;;;1.70;;
4839;SDS011;2434;48.486;7.964;2023-03-31T09:59:43;12.30;;;1.97;;
4839;SDS011;2434;48.486;7.964;2023-03-31T10:02:23;5.50;;;2.00;;
4839;SDS011;2434;48.486;7.964;2023-03-31T10:05:00;4.87;;;1.60;;
4839;SDS011;2434;48.486;7.964;2023-03-31T10:07:30;9.83;;;1.67;;
4839;SDS011;2434;48.486;7.964;2023-03-31T10:09:59;7.50;;;1.90;;
4839;SDS011;2434;48.486;7.964;2023-03-31T10:12:28;11.53;;;2.50;;
4839;SDS011;2434;48.486;7.964;2023-03-31T10:15:20;11.70;;;2.83;;
4839;SDS011;2434;48.486;7.964;2023-03-31T10:17:52;12.37;;;3.30;;
4839;SDS011;2434;48.486;7.964;2023-03-31T10:20:30;8.43;;;2.63;;
4839;SDS011;2434;48.486;7.964;2023-03-31T10:23:03;9.87;;;1.93;;
4839;SDS011;2434;48.486;7.964;2023-03-31T10:25:41;4.70;;;1.30;;
4839;SDS011;2434;48.486;7.964;2023-03-31T10:28:10;6.07;;;1.50;;
4839;SDS011;2434;48.486;7.964;2023-03-31T10:30:45;1.50;;;0.73;;
4839;SDS011;2434;48.486;7.964;2023-03-31T10:33:15;3.33;;;1.13;;
4839;SDS011;2434;48.486;7.964;2023-03-31T10:35:49;4.30;;;1.10;;
4839;SDS011;2434;48.486;7.964;2023-03-31T10:38:23;5.97;;;0.97;;
4839;SDS011;2434;48.486;7.964;2023-03-31T10:40:54;3.13;;;0.90;;
4839;SDS011;2434;48.486;7.964;2023-03-31T10:43:24;6.97;;;1.13;;
4839;SDS011;2434;48.486;7.964;2023-03-31T10:45:55;3.07;;;0.90;;
4839;SDS011;2434;48.486;7.964;2023-03-31T10:48:26;2.20;;;0.80;;
4839;SDS011;2434;48.486;7.964;2023-03-31T10:51:01;2.10;;;0.97;;
4839;SDS011;2434;48.486;7.964;2023-03-31T10:53:38;3.23;;;0.97;;
4839;SDS011;2434;48.486;7.964;2023-03-31T10:56:16;2.73;;;1.10;;
4839;SDS011;2434;48.486;7.964;2023-03-31T10:59:15;7.23;;;1.00;;
4839;SDS011;2434;48.486;7.964;2023-03-31T11:01:59;4.30;;;1.20;;
4839;SDS011;2434;48.486;7.964;2023-03-31T11:04:43;2.37;;;0.83;;
4839;SDS011;2434;48.486;7.964;2023-03-31T11:07:22;1.67;;;0.63;;
4839;SDS011;2434;48.486;7.964;2023-03-31T11:10:01;2.87;;;0.70;;
4839;SDS011;2434;48.486;7.964;2023-03-31T11:12:45;1.53;;;0.73;;
4839;SDS011;2434;48.486;7.964;2023-03-31T11:15:21;7.23;;;1.03;;
4839;SDS011;2434;48.486;7.964;2023-03-31T11:17:56;3.97;;;1.13;;
4839;SDS011;2434;48.486;7.964;2023-03-31T11:20:39;2.50;;;0.80;;
4839;SDS011;2434;48.486;7.964;2023-03-31T11:23:17;2.00;;;0.80;;
4839;SDS011;2434;48.486;7.964;2023-03-31T11:25:53;1.93;;;0.80;;
4839;SDS011;2434;48.486;7.964;2023-03-31T11:28:29;1.60;;;1.00;;
4839;SDS011;2434;48.486;7.964;2023-03-31T11:31:13;9.40;;;1.30;;
4839;SDS011;2434;48.486;7.964;2023-03-31T11:33:58;5.63;;;0.90;;
4839;SDS011;2434;48.486;7.964;2023-03-31T11:36:51;3.43;;;1.00;;
4839;SDS011;2434;48.486;7.964;2023-03-31T11:39:41;2.73;;;1.00;;
4839;SDS011;2434;48.486;7.964;2023-03-31T11:42:19;3.70;;;0.97;;
4839;SDS011;2434;48.486;7.964;2023-03-31T11:44:53;2.33;;;1.00;;
4839;SDS011;2434;48.486;7.964;2023-03-31T11:47:24;5.90;;;1.10;;
4839;SDS011;2434;48.486;7.964;2023-03-31T11:49:58;7.60;;;1.70;;
4839;SDS011;2434;48.486;7.964;2023-03-31T11:52:31;6.87;;;1.70;;
4839;SDS011;2434;48.486;7.964;2023-03-31T11:55:04;10.53;;;1.17;;
4839;SDS011;2434;48.486;7.964;2023-03-31T11:57:41;2.50;;;0.73;;
4839;SDS011;2434;48.486;7.964;2023-03-31T12:00:15;2.33;;;0.93;;
4839;SDS011;2434;48.486;7.964;2023-03-31T12:02:47;2.27;;;0.90;;
4839;SDS011;2434;48.486;7.964;2023-03-31T12:05:23;1.73;;;0.97;;
4839;SDS011;2434;48.486;7.964;2023-03-31T12:07:54;3.23;;;1.13;;
4839;SDS011;2434;48.486;7.964;2023-03-31T12:10:30;5.47;;;1.23;;
4839;SDS011;2434;48.486;7.964;2023-03-31T12:13:04;2.60;;;0.80;;
4839;SDS011;2434;48.486;7.964;2023-03-31T12:15:53;3.50;;;1.47;;
4839;SDS011;2434;48.486;7.964;2023-03-31T12:18:28;2.80;;;0.90;;
4839;SDS011;2434;48.486;7.964;2023-03-31T12:21:03;5.07;;;1.07;;
4839;SDS011;2434;48.486;7.964;2023-03-31T12:23:34;1.93;;;0.87;;
4839;SDS011;2434;48.486;7.964;2023-03-31T12:26:08;2.37;;;1.40;;
4839;SDS011;2434;48.486;7.964;2023-03-31T12:28:43;5.90;;;1.00;;
4839;SDS011;2434;48.486;7.964;2023-03-31T12:31:15;4.80;;;1.47;;
4839;SDS011;2434;48.486;7.964;2023-03-31T12:33:48;5.27;;;1.20;;
4839;SDS011;2434;48.486;7.964;2023-03-31T12:36:28;5.10;;;1.40;;
4839;SDS011;2434;48.486;7.964;2023-03-31T12:39:09;7.97;;;1.50;;
4839;SDS011;2434;48.486;7.964;2023-03-31T12:41:49;6.30;;;1.43;;
4839;SDS011;2434;48.486;7.964;2023-03-31T12:44:33;7.10;;;1.90;;
4839;SDS011;2434;48.486;7.964;2023-03-31T12:47:09;6.07;;;1.83;;
4839;SDS011;2434;48.486;7.964;2023-03-31T12:49:54;6.03;;;0.97;;
4839;SDS011;2434;48.486;7.964;2023-03-31T12:52:34;3.73;;;1.13;;
4839;SDS011;2434;48.486;7.964;2023-03-31T13:01:08;2.87;;;1.10;;
4839;SDS011;2434;48.486;7.964;2023-03-31T13:03:44;4.70;;;0.83;;
4839;SDS011;2434;48.486;7.964;2023-03-31T13:09:39;2.60;;;0.90;;
4839;SDS011;2434;48.486;7.964;2023-03-31T13:12:19;2.80;;;1.00;;
4839;SDS011;2434;48.486;7.964;2023-03-31T13:14:49;3.07;;;0.90;;
4839;SDS011;2434;48.486;7.964;2023-03-31T13:17:24;7.70;;;0.77;;
4839;SDS011;2434;48.486;7.964;2023-03-31T13:19:54;3.73;;;0.80;;
4839;SDS011;2434;48.486;7.964;2023-03-31T13:22:41;1.97;;;0.80;;
4839;SDS011;2434;48.486;7.964;2023-03-31T13:31:01;3.47;;;0.80;;
4839;SDS011;2434;48.486;7.964;2023-03-31T13:33:31;1.77;;;0.70;;
4839;SDS011;2434;48.486;7.964;2023-03-31T13:36:09;2.33;;;0.80;;
4839;SDS011;2434;48.486;7.964;2023-03-31T13:39:00;3.03;;;0.90;;
4839;SDS011;2434;48.486;7.964;2023-03-31T13:41:55;4.80;;;1.10;;
4839;SDS011;2434;48.486;7.964;2023-03-31T13:44:42;7.50;;;1.03;;
4839;SDS011;2434;48.486;7.964;2023-03-31T13:47:31;2.13;;;1.00;;
4839;SDS011;2434;48.486;7.964;2023-03-31T13:50:13;2.20;;;1.00;;
4839;SDS011;2434;48.486;7.964;2023-03-31T13:52:57;4.37;;;1.10;;
4839;SDS011;2434;48.486;7.964;2023-03-31T13:58:39;6.17;;;1.83;;
4839;SDS011;2434;48.486;7.964;2023-03-31T14:01:35;4.00;;;1.17;;
4839;SDS011;2434;48.486;7.964;2023-03-31T14:07:16;8.23;;;1.53;;
4839;SDS011;2434;48.486;7.964;2023-03-31T14:09:48;3.03;;;1.20;;
4839;SDS011;2434;48.486;7.964;2023-03-31T14:12:21;3.07;;;1.23;;
4839;SDS011;2434;48.486;7.964;2023-03-31T14:14:58;3.10;;;1.07;;
4839;SDS011;2434;48.486;7.964;2023-03-31T14:17:27;4.97;;;1.60;;
4839;SDS011;2434;48.486;7.964;2023-03-31T14:20:01;1.87;;;0.60;;
4839;SDS011;2434;48.486;7.964;2023-03-31T14:22:44;2.77;;;0.73;;
4839;SDS011;2434;48.486;7.964;2023-03-31T14:25:18;2.33;;;0.73;;
4839;SDS011;2434;48.486;7.964;2023-03-31T14:27:59;5.43;;;1.30;;
4839;SDS011;2434;48.486;7.964;2023-03-31T14:30:41;2.87;;;0.80;;
4839;SDS011;2434;48.486;7.964;2023-03-31T14:33:22;2.90;;;0.80;;
4839;SDS011;2434;48.486;7.964;2023-03-31T14:36:00;4.10;;;0.97;;
4839;SDS011;2434;48.486;7.964;2023-03-31T14:38:35;4.40;;;1.60;;
4839;SDS011;2434;48.486;7.964;2023-03-31T14:41:04;3.20;;;0.83;;
4839;SDS011;2434;48.486;7.964;2023-03-31T14:43:33;5.13;;;0.80;;
4839;SDS011;2434;48.486;7.964;2023-03-31T14:46:06;2.60;;;1.13;;
4839;SDS011;2434;48.486;7.964;2023-03-31T14:48:39;4.93;;;1.20;;
4839;SDS011;2434;48.486;7.964;2023-03-31T14:51:12;4.47;;;1.40;;
4839;SDS011;2434;48.486;7.964;2023-03-31T14:53:42;3.77;;;1.60;;
4839;SDS011;2434;48.486;7.964;2023-03-31T14:56:10;3.93;;;0.90;;
4839;SDS011;2434;48.486;7.964;2023-03-31T14:58:41;5.83;;;1.10;;
4839;SDS011;2434;48.486;7.964;2023-03-31T15:01:14;3.60;;;1.30;;
4839;SDS011;2434;48.486;7.964;2023-03-31T15:03:45;2.47;;;1.40;;
4839;SDS011;2434;48.486;7.964;2023-03-31T15:06:13;2.97;;;1.10;;
4839;SDS011;2434;48.486;7.964;2023-03-31T15:08:42;2.73;;;1.20;;
4839;SDS011;2434;48.486;7.964;2023-03-31T15:11:12;3.20;;;1.43;;
4839;SDS011;2434;48.486;7.964;2023-03-31T15:13:45;5.10;;;1.70;;
4839;SDS011;2434;48.486;7.964;2023-03-31T15:16:33;6.17;;;2.03;;
4839;SDS011;2434;48.486;7.964;2023-03-31T15:19:06;5.53;;;1.27;;
4839;SDS011;2434;48.486;7.964;2023-03-31T15:21:41;4.13;;;2.00;;
4839;SDS011;2434;48.486;7.964;2023-03-31T15:24:10;5.77;;;1.50;;
4839;SDS011;2434;48.486;7.964;2023-03-31T15:26:40;10.37;;;2.37;;
4839;SDS011;2434;48.486;7.964;2023-03-31T15:29:15;2.30;;;1.00;;
4839;SDS011;2434;48.486;7.964;2023-03-31T15:31:48;1.63;;;0.60;;
4839;SDS011;2434;48.486;7.964;2023-03-31T15:34:18;3.03;;;1.37;;
4839;SDS011;2434;48.486;7.964;2023-03-31T15:36:52;3.03;;;0.97;;
4839;SDS011;2434;48.486;7.964;2023-03-31T15:39:21;2.53;;;0.63;;
4839;SDS011;2434;48.486;7.964;2023-03-31T15:41:51;2.70;;;0.50;;
4839;SDS011;2434;48.486;7.964;2023-03-31T15:44:27;1.20;;;0.63;;
4839;SDS011;2434;48.486;7.964;2023-03-31T15:47:05;5.27;;;1.47;;
4839;SDS011;2434;48.486;7.964;2023-03-31T15:49:45;3.77;;;1.10;;
4839;SDS011;2434;48.486;7.964;2023-03-31T15:52:19;4.73;;;0.90;;
4839;SDS011;2434;48.486;7.964;2023-03-31T15:54:48;3.90;;;1.20;;
4839;SDS011;2434;48.486;7.964;2023-03-31T15:57:17;2.33;;;0.80;;
4839;SDS011;2434;48.486;7.964;2023-03-31T15:59:46;3.60;;;1.07;;
4839;SDS011;2434;48.486;7.964;2023-03-31T16:02:23;3.87;;;1.00;;
4839;SDS011;2434;48.486;7.964;2023-03-31T16:04:54;2.37;;;1.03;;
4839;SDS011;2434;48.486;7.964;2023-03-31T16:07:25;5.97;;;1.30;;
4839;SDS011;2434;48.486;7.964;2023-03-31T16:09:56;1.77;;;0.90;;
4839;SDS011;2434;48.486;7.964;2023-03-31T16:12:28;2.87;;;1.00;;
4839;SDS011;2434;48.486;7.964;2023-03-31T16:14:58;4.07;;;1.70;;
4839;SDS011;2434;48.486;7.964;2023-03-31T16:17:33;3.67;;;1.10;;
4839;SDS011;2434;48.486;7.964;2023-03-31T16:20:04;2.37;;;0.90;;